Time;durP1;ratioP1;P1;durP2;ratioP2;P2;SDS_P1;SDS_P2;PMS_P1;PMS_P2;Temp;Humidity;BMP_temperature;BMP_pressure;BME280_temperature;BME280_humidity;BME280_pressure;Samples;Min_cycle;Max_cycle;Signal;HPM_P1;HPM_P2
2024/01/13 00:02:28;;;;;;;31.67;18.43;;;3.00;99.90;;;;;;5081076;28;20694;-62
2024/01/13 00:04:56;;;;;;;29.57;16.50;;;3.00;99.90;;;;;;5081541;28;20222;-62
2024/01/13 00:07:25;;;;;;;28.83;15.57;;;3.00;99.90;;;;;;5084868;28;20262;-62
2024/01/13 00:09:57;;;;;;;25.17;15.03;;;3.10;99.90;;;;;;5084955;28;20605;-62
2024/01/13 00:12:30;;;;;;;22.97;13.90;;;3.00;99.90;;;;;;5084412;28;20610;-62
2024/01/13 00:15:00;;;;;;;25.87;15.27;;;3.00;99.90;;;;;;5083458;28;20223;-62
2024/01/13 00:17:28;;;;;;;26.13;14.90;;;3.10;99.90;;;;;;5082912;28;20239;-61
2024/01/13 00:19:57;;;;;;;23.73;13.53;;;3.10;99.90;;;;;;5077266;28;20600;-62
2024/01/13 00:22:25;;;;;;;25.67;14.00;;;3.00;99.90;;;;;;5083755;28;21009;-62
2024/01/13 00:24:55;;;;;;;22.37;13.63;;;3.10;99.90;;;;;;5080732;28;20223;-62
2024/01/13 00:27:23;;;;;;;25.10;15.23;;;3.10;99.90;;;;;;5078260;28;20686;-61
2024/01/13 00:29:52;;;;;;;25.57;15.73;;;3.20;99.90;;;;;;5081159;28;20574;-61
2024/01/13 00:32:20;;;;;;;31.73;17.10;;;3.10;99.90;;;;;;5078774;28;20224;-61
2024/01/13 00:34:48;;;;;;;27.13;16.63;;;3.10;99.90;;;;;;5077831;28;20548;-62
2024/01/13 00:37:16;;;;;;;34.70;17.67;;;3.10;99.90;;;;;;5078971;28;20216;-62
2024/01/13 00:39:45;;;;;;;36.20;18.17;;;3.10;99.90;;;;;;5080873;28;20682;-62
2024/01/13 00:42:14;;;;;;;32.37;18.50;;;3.20;99.90;;;;;;5081702;28;20223;-62
2024/01/13 00:44:43;;;;;;;30.33;18.37;;;3.20;99.90;;;;;;5080682;28;20682;-62
2024/01/13 00:47:14;;;;;;;36.70;19.87;;;3.20;99.90;;;;;;5080249;28;20188;-62
2024/01/13 00:49:42;;;;;;;36.10;19.80;;;3.20;99.90;;;;;;5081674;28;20196;-62
2024/01/13 00:52:10;;;;;;;35.47;19.73;;;3.20;99.90;;;;;;5081582;28;20215;-61
2024/01/13 00:54:42;;;;;;;35.93;19.90;;;3.20;99.90;;;;;;5081053;28;20221;-61
2024/01/13 00:57:10;;;;;;;35.43;20.13;;;3.20;99.90;;;;;;5083041;28;20238;-62
2024/01/13 00:59:40;;;;;;;34.07;19.83;;;3.20;99.90;;;;;;5077793;28;20224;-62
2024/01/13 01:02:09;;;;;;;34.80;20.20;;;3.20;99.90;;;;;;5080135;28;20196;-62
2024/01/13 01:04:37;;;;;;;35.90;19.33;;;3.20;99.90;;;;;;5080835;28;20629;-62
2024/01/13 01:07:05;;;;;;;35.50;20.53;;;3.20;99.90;;;;;;5079498;28;20237;-62
2024/01/13 01:09:34;;;;;;;37.30;20.80;;;3.20;99.90;;;;;;5082433;28;20306;-62
2024/01/13 01:12:02;;;;;;;34.17;19.40;;;3.20;99.90;;;;;;5085502;28;20222;-62
2024/01/13 01:14:31;;;;;;;32.73;19.23;;;3.20;99.90;;;;;;5083321;28;20224;-63
2024/01/13 01:17:00;;;;;;;37.67;20.27;;;3.20;99.90;;;;;;5084713;28;20247;-62
2024/01/13 01:19:28;;;;;;;37.90;20.53;;;3.20;99.90;;;;;;5084292;28;20226;-62
2024/01/13 01:21:57;;;;;;;34.13;19.93;;;3.20;99.90;;;;;;5083562;28;20227;-62
2024/01/13 01:24:25;;;;;;;34.43;19.03;;;3.20;99.90;;;;;;5096244;28;20227;-62
2024/01/13 01:26:53;;;;;;;37.13;20.50;;;3.10;99.90;;;;;;5083089;28;20288;-62
2024/01/13 01:29:22;;;;;;;33.10;19.03;;;3.10;99.90;;;;;;5084782;28;20296;-63
2024/01/13 01:31:50;;;;;;;32.30;20.27;;;3.20;99.90;;;;;;5080626;28;20187;-62
2024/01/13 01:34:20;;;;;;;32.13;19.60;;;3.10;99.90;;;;;;5084458;28;20216;-62
2024/01/13 01:36:48;;;;;;;34.50;19.53;;;3.10;99.90;;;;;;5078429;28;20230;-62
2024/01/13 01:39:16;;;;;;;36.80;19.13;;;3.20;99.90;;;;;;5085477;28;20222;-62
2024/01/13 01:41:45;;;;;;;35.73;19.40;;;3.20;99.90;;;;;;5083076;28;20600;-61
2024/01/13 01:44:15;;;;;;;31.30;18.73;;;3.20;99.90;;;;;;5083396;28;20325;-62
2024/01/13 01:46:45;;;;;;;35.07;19.50;;;3.20;99.90;;;;;;5084200;28;20196;-62
2024/01/13 01:49:15;;;;;;;33.20;18.80;;;3.10;99.90;;;;;;5086167;27;20252;-62
2024/01/13 01:51:46;;;;;;;33.67;19.23;;;3.10;99.90;;;;;;5085175;28;20272;-62
2024/01/13 01:54:14;;;;;;;28.33;17.57;;;3.10;99.90;;;;;;5083814;28;20297;-62
2024/01/13 01:56:44;;;;;;;32.17;18.43;;;3.10;99.90;;;;;;5084814;28;20250;-62
2024/01/13 01:59:13;;;;;;;30.93;18.03;;;3.10;99.90;;;;;;5080748;28;20203;-62
2024/01/13 02:01:41;;;;;;;26.07;17.50;;;3.10;99.90;;;;;;5082850;28;20192;-62
2024/01/13 02:04:10;;;;;;;32.70;17.87;;;3.10;99.90;;;;;;5083323;28;20246;-62
2024/01/13 02:06:38;;;;;;;29.13;17.70;;;3.10;99.90;;;;;;5082465;28;20225;-62
2024/01/13 02:09:09;;;;;;;30.37;17.57;;;3.10;99.90;;;;;;5085244;28;20254;-62
2024/01/13 02:11:37;;;;;;;30.80;17.70;;;3.10;99.90;;;;;;5083505;28;20219;-62
2024/01/13 02:14:06;;;;;;;25.60;17.20;;;3.10;99.90;;;;;;5085570;28;20195;-61
2024/01/13 02:16:34;;;;;;;29.60;17.67;;;3.10;99.90;;;;;;5085137;28;20286;-62
2024/01/13 02:19:02;;;;;;;29.17;17.43;;;3.10;99.90;;;;;;5081609;28;20700;-62
2024/01/13 02:21:31;;;;;;;35.97;19.07;;;3.10;99.90;;;;;;5087547;28;20238;-61
2024/01/13 02:24:01;;;;;;;33.13;18.00;;;3.10;99.90;;;;;;5087888;28;20231;-62
2024/01/13 02:26:32;;;;;;;27.17;16.33;;;3.10;99.90;;;;;;5085071;28;20289;-62
2024/01/13 02:29:01;;;;;;;25.50;15.50;;;3.10;99.90;;;;;;5079903;28;20292;-61
2024/01/13 02:31:29;;;;;;;22.20;13.70;;;3.10;99.90;;;;;;5085737;28;20704;-62
2024/01/13 02:33:57;;;;;;;21.37;13.30;;;3.00;99.90;;;;;;5083414;28;20220;-61
2024/01/13 02:36:25;;;;;;;23.17;12.47;;;3.10;99.90;;;;;;5083074;28;20689;-62
2024/01/13 02:38:54;;;;;;;18.20;13.17;;;3.10;99.90;;;;;;5080013;28;20274;-62
2024/01/13 02:41:23;;;;;;;18.30;12.03;;;3.20;99.90;;;;;;5081853;28;20303;-62
2024/01/13 02:43:52;;;;;;;15.37;11.47;;;3.20;99.90;;;;;;5081846;28;20183;-62
2024/01/13 02:46:21;;;;;;;17.50;11.37;;;3.20;99.90;;;;;;5081477;28;20210;-62
2024/01/13 02:48:53;;;;;;;17.07;11.23;;;3.20;99.90;;;;;;5083041;28;20221;-62
2024/01/13 02:51:22;;;;;;;17.33;11.17;;;3.20;99.90;;;;;;5080483;28;20223;-62
2024/01/13 02:53:50;;;;;;;19.73;11.27;;;3.10;99.90;;;;;;5085520;28;20219;-62
2024/01/13 02:56:19;;;;;;;21.43;12.67;;;3.20;99.90;;;;;;5082407;28;23131;-62
2024/01/13 02:58:48;;;;;;;19.13;12.57;;;3.20;99.90;;;;;;5084488;28;20757;-62
2024/01/13 03:01:17;;;;;;;14.80;11.13;;;3.20;99.90;;;;;;5081713;28;20223;-62
2024/01/13 03:03:49;;;;;;;15.73;12.03;;;3.10;99.90;;;;;;5078642;27;20597;-61
2024/01/13 03:06:22;;;;;;;18.37;12.17;;;3.10;99.90;;;;;;5084659;28;20219;-62
2024/01/13 03:08:53;;;;;;;20.83;12.17;;;3.10;99.90;;;;;;5078358;28;20235;-62
2024/01/13 03:11:22;;;;;;;16.03;11.83;;;3.10;99.90;;;;;;5078956;28;20233;-62
2024/01/13 03:13:56;;;;;;;24.27;12.60;;;3.10;99.90;;;;;;5083568;28;20295;-61
2024/01/13 03:16:26;;;;;;;18.23;11.90;;;3.10;99.90;;;;;;5085058;28;20221;-61
2024/01/13 03:18:55;;;;;;;19.63;12.03;;;3.10;99.90;;;;;;5082304;28;20212;-61
2024/01/13 03:21:24;;;;;;;20.00;11.97;;;3.00;99.90;;;;;;5082438;28;20235;-61
2024/01/13 03:23:52;;;;;;;16.77;11.50;;;3.00;99.90;;;;;;5081512;28;20227;-61
2024/01/13 03:26:21;;;;;;;18.10;11.10;;;3.00;99.90;;;;;;5083362;28;20242;-62
2024/01/13 03:28:49;;;;;;;19.07;11.33;;;3.00;99.90;;;;;;5080237;28;20188;-62
2024/01/13 03:31:19;;;;;;;16.73;11.23;;;3.00;99.90;;;;;;5078958;28;20338;-61
2024/01/13 03:33:47;;;;;;;17.93;10.77;;;3.00;99.90;;;;;;5079840;28;20220;-62
2024/01/13 03:36:17;;;;;;;17.40;11.63;;;3.00;99.90;;;;;;5080212;28;20216;-62
2024/01/13 03:38:47;;;;;;;16.33;10.90;;;3.10;99.90;;;;;;5079883;28;20231;-61
2024/01/13 03:41:18;;;;;;;15.27;10.70;;;3.10;99.90;;;;;;5077637;28;20199;-62
2024/01/13 03:43:47;;;;;;;16.63;10.70;;;3.10;99.90;;;;;;5085536;28;20544;-61
2024/01/13 03:46:15;;;;;;;14.10;9.97;;;3.10;99.90;;;;;;5079576;28;20694;-61
2024/01/13 03:48:45;;;;;;;15.33;10.13;;;3.00;99.90;;;;;;5077284;28;20216;-62
2024/01/13 03:51:14;;;;;;;16.97;9.93;;;3.10;99.90;;;;;;5077712;28;20219;-62
2024/01/13 03:53:42;;;;;;;15.47;10.57;;;3.10;99.90;;;;;;5076226;28;20226;-62
2024/01/13 03:56:11;;;;;;;14.43;9.73;;;3.10;99.90;;;;;;5083424;28;20697;-61
2024/01/13 03:58:40;;;;;;;15.43;10.30;;;3.10;99.90;;;;;;5082641;28;20207;-61
2024/01/13 04:01:09;;;;;;;16.17;9.70;;;3.10;99.90;;;;;;5082471;28;20639;-61
2024/01/13 04:03:39;;;;;;;13.30;9.27;;;3.10;99.90;;;;;;5081736;28;20642;-61
2024/01/13 04:06:09;;;;;;;14.97;9.53;;;3.00;99.90;;;;;;5083872;28;20302;-62
2024/01/13 04:08:38;;;;;;;13.33;9.10;;;3.00;99.90;;;;;;5082215;28;20223;-61
2024/01/13 04:11:09;;;;;;;11.63;8.80;;;3.10;99.90;;;;;;5081323;28;20209;-61
2024/01/13 04:13:38;;;;;;;11.40;8.13;;;3.10;99.90;;;;;;5082280;28;20223;-62
2024/01/13 04:16:08;;;;;;;10.77;7.90;;;3.10;99.90;;;;;;5082562;28;20218;-61
2024/01/13 04:18:37;;;;;;;10.23;7.47;;;3.10;99.90;;;;;;5080323;28;20235;-61
2024/01/13 04:21:06;;;;;;;9.93;7.93;;;3.10;99.90;;;;;;5084435;28;20610;-61
2024/01/13 04:23:51;;;;;;;8.20;7.23;;;3.10;99.90;;;;;;5083891;28;20237;-61
2024/01/13 04:26:20;;;;;;;9.70;7.33;;;3.10;99.90;;;;;;5086006;27;20614;-62
2024/01/13 04:28:48;;;;;;;10.70;6.77;;;3.10;99.90;;;;;;5084579;28;20198;-62
2024/01/13 04:31:16;;;;;;;8.83;6.97;;;3.10;99.90;;;;;;5081271;28;20219;-61
2024/01/13 04:33:45;;;;;;;8.17;6.60;;;3.10;99.90;;;;;;5083439;28;20272;-61
2024/01/13 04:36:14;;;;;;;8.20;6.93;;;3.10;99.90;;;;;;5085991;28;20211;-62
2024/01/13 04:38:42;;;;;;;7.80;6.60;;;3.10;99.90;;;;;;5077166;28;20227;-61
2024/01/13 04:41:12;;;;;;;7.37;6.60;;;3.10;99.90;;;;;;5079686;28;20768;-61
2024/01/13 04:43:40;;;;;;;6.70;6.03;;;3.10;99.90;;;;;;5081810;28;20188;-61
2024/01/13 04:46:10;;;;;;;6.70;6.03;;;3.10;99.90;;;;;;5083277;28;20219;-61
2024/01/13 04:48:40;;;;;;;6.37;5.77;;;3.10;99.90;;;;;;5080349;28;20223;-61
2024/01/13 04:51:09;;;;;;;6.60;6.00;;;3.10;99.90;;;;;;5082145;28;20310;-62
2024/01/13 04:53:38;;;;;;;6.50;5.90;;;3.10;99.90;;;;;;5077857;28;20647;-62
2024/01/13 04:56:06;;;;;;;7.50;6.17;;;3.10;99.90;;;;;;5079865;28;20187;-62
2024/01/13 04:58:36;;;;;;;7.60;6.00;;;3.10;99.90;;;;;;5077713;28;20302;-62
2024/01/13 05:01:04;;;;;;;7.57;6.17;;;3.10;99.90;;;;;;5080826;28;20230;-62
2024/01/13 05:03:33;;;;;;;6.57;5.97;;;3.10;99.90;;;;;;5080017;28;21005;-62
2024/01/13 05:06:02;;;;;;;9.13;6.70;;;3.10;99.90;;;;;;5080543;28;20264;-61
2024/01/13 05:08:31;;;;;;;7.87;6.73;;;3.10;99.90;;;;;;5074665;28;20235;-62
2024/01/13 05:10:59;;;;;;;9.17;7.50;;;3.10;99.90;;;;;;5078629;28;20190;-60
2024/01/13 05:13:27;;;;;;;8.13;7.37;;;3.10;99.90;;;;;;5080704;28;20626;-62
2024/01/13 05:15:57;;;;;;;9.97;7.07;;;3.10;99.90;;;;;;5081862;28;20264;-61
2024/01/13 05:18:25;;;;;;;7.90;7.03;;;3.20;99.90;;;;;;5079926;28;20320;-62
2024/01/13 05:20:54;;;;;;;9.13;7.27;;;3.20;99.90;;;;;;5083368;28;20227;-61
2024/01/13 05:23:22;;;;;;;9.37;7.33;;;3.20;99.90;;;;;;5079027;28;20227;-62
2024/01/13 05:25:51;;;;;;;8.93;8.00;;;3.20;99.90;;;;;;5077808;28;20191;-61
2024/01/13 05:28:19;;;;;;;9.90;8.17;;;3.20;99.90;;;;;;5079405;28;20223;-62
2024/01/13 05:30:47;;;;;;;9.87;8.43;;;3.20;99.90;;;;;;5084602;28;20214;-61
2024/01/13 05:33:17;;;;;;;10.93;8.53;;;3.30;99.90;;;;;;5083895;28;20254;-61
2024/01/13 05:35:46;;;;;;;12.90;9.10;;;3.30;99.90;;;;;;5079007;28;20692;-62
2024/01/13 05:38:14;;;;;;;11.17;8.80;;;3.30;99.90;;;;;;5077675;28;20222;-62
2024/01/13 05:40:44;;;;;;;17.83;10.27;;;3.20;99.90;;;;;;5079537;28;20203;-62
2024/01/13 05:43:12;;;;;;;12.07;9.00;;;3.20;99.90;;;;;;5083300;28;20265;-62
2024/01/13 05:45:41;;;;;;;13.10;10.00;;;3.20;99.90;;;;;;5079333;28;20258;-62
2024/01/13 05:48:09;;;;;;;15.33;10.67;;;3.30;99.90;;;;;;5078710;28;20699;-62
2024/01/13 05:50:40;;;;;;;17.57;10.37;;;3.30;99.90;;;;;;5079978;28;20223;-62
2024/01/13 05:53:08;;;;;;;16.63;11.20;;;3.30;99.90;;;;;;5080156;28;20195;-61
2024/01/13 05:55:36;;;;;;;20.50;11.53;;;3.20;99.90;;;;;;5087545;28;20191;-62
2024/01/13 05:58:05;;;;;;;15.47;10.80;;;3.20;99.90;;;;;;5085724;28;20238;-62
2024/01/13 06:00:33;;;;;;;18.60;11.80;;;3.20;99.90;;;;;;5079973;28;20215;-62
2024/01/13 06:03:02;;;;;;;18.07;12.27;;;3.20;99.90;;;;;;5081436;28;20329;-62
2024/01/13 06:05:32;;;;;;;15.67;11.10;;;3.20;99.90;;;;;;5087559;28;20246;-62
2024/01/13 06:08:02;;;;;;;20.40;12.77;;;3.20;99.90;;;;;;5085749;28;20581;-63
2024/01/13 06:10:30;;;;;;;15.93;11.10;;;3.20;99.90;;;;;;5086183;28;20196;-62
2024/01/13 06:12:59;;;;;;;17.07;12.23;;;3.20;99.90;;;;;;5085750;28;20228;-62
2024/01/13 06:15:29;;;;;;;17.77;11.87;;;3.20;99.90;;;;;;5084805;28;20743;-62
2024/01/13 06:17:57;;;;;;;17.20;11.37;;;3.20;99.90;;;;;;5081260;28;20251;-62
2024/01/13 06:20:26;;;;;;;20.73;13.20;;;3.20;99.90;;;;;;5083860;28;20686;-61
2024/01/13 06:22:54;;;;;;;18.43;12.27;;;3.20;99.90;;;;;;5084776;28;20198;-62
2024/01/13 06:25:24;;;;;;;18.13;12.20;;;3.20;99.90;;;;;;5083901;28;20239;-61
2024/01/13 06:27:52;;;;;;;20.70;12.50;;;3.20;99.90;;;;;;5087565;28;20302;-62
2024/01/13 06:30:20;;;;;;;20.80;13.30;;;3.20;99.90;;;;;;5084152;28;20330;-62
2024/01/13 06:32:49;;;;;;;17.63;12.80;;;3.20;99.90;;;;;;5078382;28;20215;-62
2024/01/13 06:35:17;;;;;;;20.67;12.40;;;3.20;99.90;;;;;;5086420;28;20180;-61
2024/01/13 06:37:46;;;;;;;20.10;13.17;;;3.20;99.90;;;;;;5087692;28;20331;-61
2024/01/13 06:40:15;;;;;;;20.20;13.30;;;3.20;99.90;;;;;;5080253;28;20224;-61
2024/01/13 06:42:45;;;;;;;20.27;13.50;;;3.10;99.90;;;;;;5093596;28;20219;-61
2024/01/13 06:45:13;;;;;;;18.67;13.47;;;3.20;99.90;;;;;;5081006;28;20223;-61
2024/01/13 06:47:43;;;;;;;21.50;13.50;;;3.10;99.90;;;;;;5079781;28;20243;-61
2024/01/13 06:50:12;;;;;;;22.73;13.60;;;3.20;99.90;;;;;;5078942;28;20192;-61
2024/01/13 06:52:40;;;;;;;23.07;13.60;;;3.20;99.90;;;;;;5079710;28;20200;-61
2024/01/13 06:55:09;;;;;;;19.80;13.20;;;3.20;99.90;;;;;;5078992;28;20677;-61
2024/01/13 06:57:37;;;;;;;23.00;13.43;;;3.20;99.90;;;;;;5078310;28;20220;-61
2024/01/13 07:00:09;;;;;;;20.93;13.70;;;3.20;99.90;;;;;;5080820;28;20570;-61
2024/01/13 07:02:38;;;;;;;21.87;14.10;;;3.20;99.90;;;;;;5080322;28;20224;-61
2024/01/13 07:05:07;;;;;;;21.60;14.27;;;3.20;99.90;;;;;;5077836;28;20686;-62
2024/01/13 07:07:36;;;;;;;22.50;14.80;;;3.10;99.90;;;;;;5080126;28;20269;-62
2024/01/13 07:10:05;;;;;;;23.03;13.70;;;3.20;99.90;;;;;;5080523;28;20223;-63
2024/01/13 07:12:33;;;;;;;24.70;15.00;;;3.10;99.90;;;;;;5083699;28;20740;-63
2024/01/13 07:15:01;;;;;;;25.73;14.67;;;3.10;99.90;;;;;;5083933;28;20276;-63
2024/01/13 07:17:33;;;;;;;23.20;14.17;;;3.10;99.90;;;;;;5081864;28;20741;-62
2024/01/13 07:20:01;;;;;;;23.47;14.73;;;3.20;99.90;;;;;;5081581;28;20557;-63
2024/01/13 07:22:30;;;;;;;27.60;14.73;;;3.20;99.90;;;;;;5078134;28;20475;-62
2024/01/13 07:24:58;;;;;;;22.73;14.50;;;3.10;99.90;;;;;;5079504;28;20230;-63
2024/01/13 07:27:26;;;;;;;26.10;13.97;;;3.10;99.90;;;;;;5079378;28;20231;-63
2024/01/13 07:29:55;;;;;;;24.80;14.40;;;3.10;99.90;;;;;;5081127;28;20702;-63
2024/01/13 07:32:28;;;;;;;21.87;13.83;;;3.10;99.90;;;;;;5078983;28;20656;-63
2024/01/13 07:34:58;;;;;;;22.20;13.97;;;3.20;99.90;;;;;;5077263;28;20195;-62
2024/01/13 07:37:27;;;;;;;22.57;13.57;;;3.20;99.90;;;;;;5074874;28;20223;-62
2024/01/13 07:39:55;;;;;;;27.97;14.03;;;3.20;99.90;;;;;;5077614;28;20223;-63
2024/01/13 07:42:24;;;;;;;22.13;13.40;;;3.20;99.90;;;;;;5077511;28;20863;-62
2024/01/13 07:44:52;;;;;;;25.27;13.90;;;3.20;99.90;;;;;;5080886;28;20218;-62
2024/01/13 07:47:23;;;;;;;21.20;13.27;;;3.10;99.90;;;;;;5078309;28;20238;-62
2024/01/13 07:49:51;;;;;;;22.37;14.03;;;3.10;99.90;;;;;;5079259;28;20192;-62
2024/01/13 07:52:21;;;;;;;22.83;14.00;;;3.10;99.90;;;;;;5081412;28;20233;-63
2024/01/13 07:54:49;;;;;;;27.83;14.70;;;3.20;99.90;;;;;;5083852;28;20890;-62
2024/01/13 07:57:17;;;;;;;24.33;13.37;;;3.20;99.90;;;;;;5083530;28;20311;-63
2024/01/13 07:59:45;;;;;;;21.70;13.83;;;3.20;99.90;;;;;;5080705;28;20642;-62
2024/01/13 08:02:15;;;;;;;24.40;13.90;;;3.10;99.90;;;;;;5078450;28;20221;-63
2024/01/13 08:04:43;;;;;;;22.90;13.50;;;3.10;99.90;;;;;;5079011;28;20646;-62
2024/01/13 08:07:14;;;;;;;24.30;13.57;;;3.10;99.90;;;;;;5077985;28;20269;-63
2024/01/13 08:09:44;;;;;;;23.63;13.67;;;3.10;99.90;;;;;;5079694;28;20227;-63
2024/01/13 08:12:12;;;;;;;22.60;13.70;;;3.20;99.90;;;;;;5082509;28;20720;-63
2024/01/13 08:14:40;;;;;;;22.90;14.00;;;3.20;99.90;;;;;;5082534;28;20597;-63
2024/01/13 08:17:09;;;;;;;23.33;13.87;;;3.20;99.90;;;;;;5080188;28;20501;-63
2024/01/13 08:19:37;;;;;;;20.73;13.53;;;3.10;99.90;;;;;;5079803;28;20211;-63
2024/01/13 08:22:07;;;;;;;24.07;14.93;;;3.10;99.90;;;;;;5080163;27;20673;-63
2024/01/13 08:24:35;;;;;;;27.37;15.00;;;3.10;99.90;;;;;;5076767;28;20954;-63
2024/01/13 08:27:06;;;;;;;26.43;15.87;;;3.20;99.90;;;;;;5078024;28;20211;-62
2024/01/13 08:29:35;;;;;;;26.20;15.43;;;3.10;99.90;;;;;;5081751;28;20258;-62
2024/01/13 08:32:04;;;;;;;32.30;16.60;;;3.20;99.90;;;;;;5084494;27;20231;-62
2024/01/13 08:34:33;;;;;;;26.37;15.33;;;3.20;99.90;;;;;;5084137;28;20286;-62
2024/01/13 08:37:01;;;;;;;26.37;15.50;;;3.20;99.90;;;;;;5081834;28;20260;-62
2024/01/13 08:39:30;;;;;;;28.57;15.20;;;3.20;99.90;;;;;;5081951;28;20315;-62
2024/01/13 08:41:58;;;;;;;26.97;15.77;;;3.20;99.90;;;;;;5081918;28;20245;-62
2024/01/13 08:44:28;;;;;;;28.00;16.67;;;3.20;99.90;;;;;;5077874;28;20578;-63
2024/01/13 08:46:56;;;;;;;30.20;16.73;;;3.20;99.90;;;;;;5079477;28;20195;-62
2024/01/13 08:49:28;;;;;;;29.17;16.30;;;3.20;99.90;;;;;;5080489;28;20261;-62
2024/01/13 08:51:56;;;;;;;25.97;15.97;;;3.20;99.90;;;;;;5080795;28;20269;-62
2024/01/13 08:54:25;;;;;;;26.07;16.00;;;3.20;99.90;;;;;;5080806;28;20222;-62
2024/01/13 08:56:53;;;;;;;30.67;15.90;;;3.20;99.90;;;;;;5079399;28;20593;-62
2024/01/13 08:59:22;;;;;;;31.17;16.13;;;3.20;99.90;;;;;;5079583;28;20251;-63
2024/01/13 09:01:51;;;;;;;26.63;16.50;;;3.20;99.90;;;;;;5080166;28;20214;-62
2024/01/13 09:04:20;;;;;;;23.47;15.57;;;3.30;99.90;;;;;;5078834;28;20289;-63
2024/01/13 09:06:48;;;;;;;25.13;15.90;;;3.30;99.90;;;;;;5077543;28;20593;-63
2024/01/13 09:09:16;;;;;;;27.70;16.30;;;3.30;99.90;;;;;;5081162;28;20488;-63
2024/01/13 09:11:48;;;;;;;25.97;16.13;;;3.30;99.90;;;;;;5080949;27;20219;-62
2024/01/13 09:14:17;;;;;;;28.67;16.60;;;3.30;99.90;;;;;;5077168;28;20237;-62
2024/01/13 09:16:45;;;;;;;27.20;15.80;;;3.30;99.90;;;;;;5078249;28;20199;-63
2024/01/13 09:19:15;;;;;;;31.83;16.77;;;3.30;99.90;;;;;;5082725;28;20215;-63
2024/01/13 09:21:44;;;;;;;28.40;16.60;;;3.30;99.90;;;;;;5079040;28;20818;-63
2024/01/13 09:24:16;;;;;;;28.87;17.53;;;3.40;99.90;;;;;;5079418;28;20227;-63
2024/01/13 09:26:45;;;;;;;28.63;17.50;;;3.30;99.90;;;;;;5082928;28;20241;-63
2024/01/13 09:29:17;;;;;;;26.30;16.37;;;3.20;99.90;;;;;;5079268;28;20191;-63
2024/01/13 09:31:49;;;;;;;25.30;16.10;;;3.20;99.90;;;;;;5082992;28;20180;-63
2024/01/13 09:34:19;;;;;;;27.37;16.77;;;3.20;99.90;;;;;;5085600;27;20257;-63
2024/01/13 09:36:48;;;;;;;31.93;18.27;;;3.20;99.90;;;;;;5084641;28;20219;-63
2024/01/13 09:39:21;;;;;;;27.13;16.73;;;3.30;99.90;;;;;;5086108;28;20226;-63
2024/01/13 09:41:53;;;;;;;28.13;16.43;;;3.20;99.90;;;;;;5083323;28;20240;-62
2024/01/13 09:44:24;;;;;;;32.10;17.33;;;3.20;99.90;;;;;;5082474;28;20219;-63
2024/01/13 09:46:54;;;;;;;29.27;17.33;;;3.20;99.90;;;;;;5082684;28;20195;-63
2024/01/13 09:49:27;;;;;;;32.97;18.03;;;3.20;99.90;;;;;;5084354;28;20219;-63
2024/01/13 09:51:57;;;;;;;30.20;17.53;;;3.30;99.90;;;;;;5087271;28;20649;-63
2024/01/13 09:54:26;;;;;;;28.47;16.20;;;3.30;99.90;;;;;;5081670;28;20235;-63
2024/01/13 09:56:56;;;;;;;30.20;17.50;;;3.30;99.90;;;;;;5084246;28;20230;-63
2024/01/13 09:59:28;;;;;;;30.57;17.93;;;3.30;99.90;;;;;;5086290;28;20277;-63
2024/01/13 10:01:59;;;;;;;29.77;17.60;;;3.40;99.90;;;;;;5081980;28;21641;-62
2024/01/13 10:04:29;;;;;;;27.83;17.53;;;3.40;99.90;;;;;;5084573;28;20299;-63
2024/01/13 10:06:58;;;;;;;33.10;17.60;;;3.40;99.90;;;;;;5085035;28;20242;-63
2024/01/13 10:09:27;;;;;;;27.57;17.47;;;3.40;99.90;;;;;;5082849;28;20585;-63
2024/01/13 10:12:06;;;;;;;31.77;18.13;;;3.40;99.90;;;;;;5084914;28;20215;-63
2024/01/13 10:14:39;;;;;;;31.43;17.63;;;3.40;99.90;;;;;;5080974;28;20248;-63
2024/01/13 10:17:10;;;;;;;32.13;17.50;;;3.40;99.90;;;;;;5082838;28;20220;-63
2024/01/13 10:19:42;;;;;;;33.90;17.67;;;3.40;99.90;;;;;;5084383;28;20264;-63
2024/01/13 10:22:13;;;;;;;28.90;17.87;;;3.50;99.90;;;;;;5083844;28;20272;-63
2024/01/13 10:24:41;;;;;;;28.03;17.27;;;3.50;99.90;;;;;;5084546;28;20220;-63
2024/01/13 10:27:09;;;;;;;36.93;17.93;;;3.50;99.90;;;;;;5085725;28;20310;-63
2024/01/13 10:29:41;;;;;;;30.33;17.23;;;3.50;99.90;;;;;;5084384;28;20227;-63
2024/01/13 10:32:12;;;;;;;27.33;16.67;;;3.60;99.90;;;;;;5088600;27;20253;-63
2024/01/13 10:34:47;;;;;;;30.03;17.37;;;3.60;99.90;;;;;;5084862;28;20207;-63
2024/01/13 10:37:16;;;;;;;26.93;17.03;;;3.60;99.90;;;;;;5081162;27;20229;-62
2024/01/13 10:39:44;;;;;;;28.83;17.10;;;3.60;99.90;;;;;;5082215;28;20246;-63
2024/01/13 10:42:15;;;;;;;27.63;16.47;;;3.60;99.90;;;;;;5080239;28;20682;-63
2024/01/13 10:44:49;;;;;;;24.60;15.37;;;3.60;99.90;;;;;;5082959;28;20272;-63
2024/01/13 10:47:21;;;;;;;26.10;15.40;;;3.60;99.90;;;;;;5086350;28;20254;-64
2024/01/13 10:49:52;;;;;;;25.20;15.90;;;3.60;99.90;;;;;;5079719;28;20192;-63
2024/01/13 10:52:28;;;;;;;28.03;17.10;;;3.60;99.90;;;;;;5082648;28;20212;-63
2024/01/13 10:55:01;;;;;;;28.93;16.97;;;3.60;99.90;;;;;;5081958;28;20210;-63
2024/01/13 10:57:30;;;;;;;26.37;16.80;;;3.70;99.90;;;;;;5084795;28;20230;-63
2024/01/13 11:00:00;;;;;;;30.10;17.07;;;3.70;99.90;;;;;;5083026;28;20231;-63
2024/01/13 11:02:32;;;;;;;30.10;16.70;;;3.70;99.90;;;;;;5083328;28;20218;-63
2024/01/13 11:05:03;;;;;;;30.67;16.63;;;3.70;99.90;;;;;;5082973;28;20184;-62
2024/01/13 11:07:31;;;;;;;29.97;17.00;;;3.60;99.90;;;;;;5084660;28;20594;-63
2024/01/13 11:10:02;;;;;;;28.40;17.40;;;3.60;99.90;;;;;;5081946;28;20346;-63
2024/01/13 11:12:35;;;;;;;30.10;17.57;;;3.60;99.90;;;;;;5083595;28;20284;-63
2024/01/13 11:15:12;;;;;;;28.40;16.90;;;3.60;99.90;;;;;;5082496;28;20318;-62
2024/01/13 11:17:41;;;;;;;32.77;17.37;;;3.60;99.90;;;;;;5083428;28;20250;-63
2024/01/13 11:20:12;;;;;;;29.60;16.87;;;3.60;99.90;;;;;;5084536;28;20648;-63
2024/01/13 11:22:40;;;;;;;29.63;17.47;;;3.60;99.90;;;;;;5085998;28;20715;-63
2024/01/13 11:25:24;;;;;;;29.60;17.73;;;3.60;99.90;;;;;;5081826;28;20216;-63
2024/01/13 11:27:59;;;;;;;37.80;18.20;;;3.60;99.90;;;;;;5080489;28;20330;-62
2024/01/13 11:30:46;;;;;;;32.77;17.50;;;3.60;99.90;;;;;;5086929;28;20239;-63
2024/01/13 11:33:16;;;;;;;30.83;17.20;;;3.60;99.90;;;;;;5078487;28;20216;-63
2024/01/13 11:35:47;;;;;;;31.27;17.33;;;3.60;99.90;;;;;;5082094;28;20280;-63
2024/01/13 11:38:16;;;;;;;28.43;17.47;;;3.60;99.90;;;;;;5082427;28;20287;-62
2024/01/13 11:40:46;;;;;;;29.27;17.53;;;3.70;99.90;;;;;;5076558;28;20570;-63
2024/01/13 11:43:23;;;;;;;28.07;17.43;;;3.70;99.90;;;;;;5081060;28;20223;-63
2024/01/13 11:45:52;;;;;;;28.97;17.97;;;3.60;99.90;;;;;;5083915;28;20305;-62
2024/01/13 11:48:46;;;;;;;35.17;19.47;;;3.60;99.90;;;;;;5084312;28;20303;-63
2024/01/13 11:51:18;;;;;;;35.70;18.43;;;3.60;99.90;;;;;;5082435;28;20226;-63
2024/01/13 11:54:00;;;;;;;35.13;18.63;;;3.60;99.90;;;;;;5079325;28;20223;-63
2024/01/13 11:56:29;;;;;;;32.77;17.63;;;3.70;99.90;;;;;;5083524;28;20654;-61
2024/01/13 11:58:57;;;;;;;32.47;18.20;;;3.70;99.90;;;;;;5084296;28;20191;-61
2024/01/13 12:01:25;;;;;;;32.00;17.97;;;3.70;99.90;;;;;;5085258;28;20227;-62
2024/01/13 12:04:04;;;;;;;30.63;17.70;;;3.60;99.90;;;;;;5081602;27;20713;-61
2024/01/13 12:06:33;;;;;;;33.20;18.93;;;3.70;99.90;;;;;;5084053;28;20226;-62
2024/01/13 12:09:03;;;;;;;33.77;18.90;;;3.60;99.90;;;;;;5082544;28;20230;-62
2024/01/13 12:11:31;;;;;;;30.93;18.67;;;3.60;99.90;;;;;;5081136;28;20234;-62
2024/01/13 12:14:05;;;;;;;33.23;18.47;;;3.60;99.90;;;;;;5079669;28;20192;-62
2024/01/13 12:16:35;;;;;;;31.90;18.67;;;3.60;99.90;;;;;;5084000;28;20191;-61
2024/01/13 12:19:04;;;;;;;35.10;18.63;;;3.60;99.90;;;;;;5084528;28;20305;-61
2024/01/13 12:21:37;;;;;;;33.00;19.00;;;3.60;99.90;;;;;;5082600;28;20215;-61
2024/01/13 12:24:09;;;;;;;33.70;18.77;;;3.60;99.90;;;;;;5075924;28;20226;-61
2024/01/13 12:26:38;;;;;;;38.00;20.03;;;3.60;99.90;;;;;;5080124;28;20211;-62
2024/01/13 12:29:08;;;;;;;32.73;19.03;;;3.60;99.90;;;;;;5079298;28;20203;-62
2024/01/13 12:31:38;;;;;;;34.33;18.80;;;3.50;99.90;;;;;;5080580;28;20195;-62
2024/01/13 12:34:14;;;;;;;34.27;19.47;;;3.50;99.90;;;;;;5074433;28;20222;-62
2024/01/13 12:36:44;;;;;;;33.87;19.43;;;3.50;99.90;;;;;;5078244;28;20269;-62
2024/01/13 12:39:13;;;;;;;29.83;18.43;;;3.50;99.90;;;;;;5080633;28;20600;-61
2024/01/13 12:41:42;;;;;;;33.10;19.13;;;3.50;99.90;;;;;;5070184;28;20980;-62
2024/01/13 12:44:25;;;;;;;36.03;18.97;;;3.40;99.90;;;;;;5072856;27;20583;-62
2024/01/13 12:46:57;;;;;;;37.27;17.90;;;3.50;99.90;;;;;;5078797;28;20192;-62
2024/01/13 12:49:26;;;;;;;33.60;19.43;;;3.50;99.90;;;;;;5093943;27;20583;-62
2024/01/13 12:51:57;;;;;;;34.87;18.87;;;3.50;99.90;;;;;;5072091;28;20223;-61